createdAt,value
2018-11-02T00:00:37.929Z,43.90
2018-11-02T00:01:42.465Z,38.65
2018-11-02T00:02:47.006Z,39.98
2018-11-02T00:03:51.565Z,46.77
2018-11-02T00:04:56.145Z,30.77
2018-11-02T00:06:16.481Z,31.05
2018-11-02T00:07:36.251Z,43.78
2018-11-02T00:08:56.818Z,36.48
2018-11-02T00:10:01.399Z,34.90
2018-11-02T00:11:05.872Z,42.23
2018-11-02T00:12:10.555Z,36.65
2018-11-02T00:13:15.020Z,47.43
2018-11-02T00:14:19.524Z,40.95
2018-11-02T00:15:24.109Z,38.65
2018-11-02T00:16:28.595Z,39.42
2018-11-02T00:17:33.097Z,42.73
2018-11-02T00:18:37.632Z,42.93
2018-11-02T00:19:42.690Z,35.40
2018-11-02T00:20:47.293Z,44.08
2018-11-02T00:21:51.811Z,43.08
2018-11-02T00:22:56.332Z,38.53
2018-11-02T00:24:00.887Z,37.98
2018-11-02T00:25:05.533Z,41.73
2018-11-02T00:26:10.000Z,38.88
2018-11-02T00:27:14.486Z,46.25
2018-11-02T00:28:18.979Z,38.92
2018-11-02T00:29:23.522Z,38.40
2018-11-02T00:30:28.038Z,41.70
2018-11-02T00:31:32.960Z,43.73
2018-11-02T00:32:37.517Z,42.20
2018-11-02T00:33:42.115Z,46.45
2018-11-02T00:34:46.676Z,38.58
2018-11-02T00:35:51.123Z,34.53
2018-11-02T00:36:55.696Z,33.48
2018-11-02T00:38:00.924Z,36.90
2018-11-02T00:39:06.641Z,43.28
2018-11-02T00:40:11.192Z,44.10
2018-11-02T00:41:15.635Z,40.40
2018-11-02T00:42:20.172Z,35.23
2018-11-02T00:43:24.717Z,40.45
2018-11-02T00:44:29.383Z,47.10
2018-11-02T00:45:33.941Z,52.10
2018-11-02T00:46:38.900Z,42.05
2018-11-02T00:47:43.365Z,37.80
2018-11-02T00:48:47.829Z,35.80
2018-11-02T00:49:52.395Z,42.73
2018-11-02T00:50:56.997Z,39.92
2018-11-02T00:52:01.489Z,38.48
2018-11-02T00:53:06.694Z,36.08
2018-11-02T00:54:11.212Z,35.88
2018-11-02T00:55:15.691Z,42.60
2018-11-02T00:56:20.176Z,35.95
2018-11-02T00:57:24.947Z,35.95
2018-11-02T00:58:29.450Z,37.10
2018-11-02T00:59:33.918Z,30.43
2018-11-02T01:00:38.388Z,38.45
2018-11-02T01:01:42.976Z,40.98
2018-11-02T01:02:47.444Z,37.80
2018-11-02T01:03:51.906Z,40.05
2018-11-02T01:04:56.373Z,34.33
2018-11-02T01:06:00.848Z,45.63
2018-11-02T01:07:06.009Z,37.88
2018-11-02T01:08:10.492Z,36.00
2018-11-02T01:09:15.124Z,36.77
2018-11-02T01:10:20.776Z,34.30
2018-11-02T01:11:25.405Z,48.17
2018-11-02T01:12:29.954Z,38.58
2018-11-02T01:13:34.504Z,30.88
2018-11-02T01:14:38.968Z,38.90
2018-11-02T01:15:43.437Z,35.00
2018-11-02T01:16:47.996Z,36.38
2018-11-02T01:17:52.501Z,36.28
2018-11-02T01:18:56.973Z,35.43
2018-11-02T01:20:01.430Z,34.15
2018-11-02T01:21:05.941Z,36.20
2018-11-02T01:22:10.541Z,39.48
2018-11-02T01:23:15.088Z,38.58
2018-11-02T01:24:19.558Z,37.10
2018-11-02T01:25:24.117Z,36.15
2018-11-02T01:26:28.785Z,37.20
2018-11-02T01:27:33.348Z,35.35
2018-11-02T01:28:37.874Z,38.17
2018-11-02T01:29:42.441Z,36.75
2018-11-02T01:30:47.022Z,40.83
2018-11-02T01:31:51.736Z,36.13
2018-11-02T01:32:56.275Z,31.85
2018-11-02T01:34:00.842Z,32.30
2018-11-02T01:35:06.305Z,33.67
2018-11-02T01:36:11.144Z,39.30
2018-11-02T01:37:15.696Z,35.43
2018-11-02T01:38:20.163Z,37.42
2018-11-02T01:39:24.763Z,36.50
2018-11-02T01:40:29.280Z,34.60
2018-11-02T01:41:33.792Z,34.65
2018-11-02T01:42:38.280Z,33.90
2018-11-02T01:43:42.752Z,35.40
2018-11-02T01:44:47.302Z,36.05
2018-11-02T01:45:52.441Z,36.45
2018-11-02T01:46:56.982Z,43.65
2018-11-02T01:48:01.458Z,36.25
2018-11-02T01:49:06.493Z,45.15
2018-11-02T01:50:11.049Z,37.90
2018-11-02T01:51:15.619Z,41.58
2018-11-02T01:52:20.154Z,40.52
2018-11-02T01:53:24.778Z,38.10
2018-11-02T01:54:29.306Z,39.95
2018-11-02T01:55:33.854Z,33.92
2018-11-02T01:56:38.397Z,35.75
2018-11-02T01:57:42.946Z,34.00
2018-11-02T01:58:47.512Z,31.87
2018-11-02T01:59:52.052Z,41.23
2018-11-02T02:00:56.603Z,40.08
2018-11-02T02:02:01.170Z,44.20
2018-11-02T02:03:05.851Z,31.95
2018-11-02T02:04:10.376Z,31.73
2018-11-02T02:05:14.832Z,42.45
2018-11-02T02:06:19.381Z,38.08
2018-11-02T02:07:23.851Z,38.75
2018-11-02T02:08:28.434Z,33.80
2018-11-02T02:09:33.005Z,41.90
2018-11-02T02:10:37.545Z,37.03
2018-11-02T02:11:42.101Z,34.20
2018-11-02T02:12:46.635Z,36.40
2018-11-02T02:13:51.220Z,37.58
2018-11-02T02:14:55.744Z,41.98
2018-11-02T02:16:00.481Z,42.98
2018-11-02T02:17:05.059Z,41.15
2018-11-02T02:18:09.508Z,34.73
2018-11-02T02:19:14.051Z,33.58
2018-11-02T02:20:18.566Z,34.88
2018-11-02T02:21:23.086Z,35.80
2018-11-02T02:22:27.642Z,41.65
2018-11-02T02:23:32.206Z,41.58
2018-11-02T02:24:36.749Z,38.48
2018-11-02T02:25:41.269Z,33.63
2018-11-02T02:26:45.787Z,50.33
2018-11-02T02:27:50.412Z,31.73
2018-11-02T02:28:54.946Z,40.17
2018-11-02T02:29:59.398Z,33.20
2018-11-02T02:31:03.931Z,41.70
2018-11-02T02:32:08.636Z,47.38
2018-11-02T02:33:13.178Z,37.58
2018-11-02T02:34:17.739Z,37.15
2018-11-02T02:35:22.238Z,39.98
2018-11-02T02:36:26.768Z,34.27
2018-11-02T02:37:31.309Z,40.95
2018-11-02T02:38:35.861Z,32.25
2018-11-02T02:39:40.439Z,36.08
2018-11-02T02:40:44.969Z,39.53
2018-11-02T02:41:49.494Z,34.58
2018-11-02T02:42:54.090Z,44.45
2018-11-02T02:43:58.620Z,31.87
2018-11-02T02:45:03.213Z,38.70
2018-11-02T02:46:07.790Z,36.68
2018-11-02T02:47:12.301Z,39.58
2018-11-02T02:48:16.862Z,34.45
2018-11-02T02:49:21.396Z,35.92
2018-11-02T02:50:25.923Z,36.30
2018-11-02T02:51:30.387Z,28.02
2018-11-02T02:52:34.827Z,37.25
2018-11-02T02:53:39.288Z,37.40
2018-11-02T02:54:43.797Z,38.78
2018-11-02T02:55:48.381Z,41.60
2018-11-02T02:56:52.898Z,36.17
2018-11-02T02:57:57.449Z,48.20
2018-11-02T02:59:02.006Z,33.42
2018-11-02T03:00:08.247Z,38.45
2018-11-02T03:01:12.847Z,38.60
2018-11-02T03:02:17.418Z,45.78
2018-11-02T03:03:21.941Z,35.85
2018-11-02T03:04:26.731Z,44.33
2018-11-02T03:05:31.285Z,45.70
2018-11-02T03:06:35.818Z,42.05
2018-11-02T03:07:40.964Z,38.13
2018-11-02T03:08:45.509Z,38.20
2018-11-02T03:09:49.974Z,38.53
2018-11-02T03:10:54.603Z,38.40
2018-11-02T03:11:59.101Z,38.25
2018-11-02T03:13:03.565Z,39.08
2018-11-02T03:14:08.146Z,45.45
2018-11-02T03:15:12.920Z,37.20
2018-11-02T03:16:17.434Z,47.45
2018-11-02T03:17:21.987Z,40.98
2018-11-02T03:18:26.597Z,40.40
2018-11-02T03:19:31.394Z,50.12
2018-11-02T03:20:35.843Z,34.73
2018-11-02T03:21:40.441Z,42.55
2018-11-02T03:22:45.151Z,42.35
2018-11-02T03:23:49.546Z,39.53
2018-11-02T03:24:54.002Z,43.90
2018-11-02T03:25:58.472Z,35.10
2018-11-02T03:27:03.033Z,36.45
2018-11-02T03:28:07.593Z,39.78
2018-11-02T03:29:12.306Z,44.53
2018-11-02T03:30:16.824Z,37.50
2018-11-02T03:31:21.394Z,43.00
2018-11-02T03:32:25.923Z,44.50
2018-11-02T03:33:30.533Z,36.75
2018-11-02T03:34:34.990Z,40.17
2018-11-02T03:35:39.582Z,36.53
2018-11-02T03:36:44.097Z,35.10
2018-11-02T03:37:48.619Z,37.63
2018-11-02T03:38:53.186Z,43.65
2018-11-02T03:39:57.721Z,32.70
2018-11-02T03:41:02.347Z,44.90
2018-11-02T03:42:07.453Z,37.85
2018-11-02T03:43:12.001Z,36.15
2018-11-02T03:44:16.560Z,42.03
2018-11-02T03:45:21.079Z,39.18
2018-11-02T03:46:25.627Z,40.00
2018-11-02T03:47:30.204Z,51.05
2018-11-02T03:48:34.744Z,37.13
2018-11-02T03:49:39.681Z,49.42
2018-11-02T03:50:44.254Z,38.65
2018-11-02T03:51:48.791Z,36.03
2018-11-02T03:52:53.757Z,40.50
2018-11-02T03:53:58.837Z,48.33
2018-11-02T03:55:03.853Z,44.40
2018-11-02T03:56:08.732Z,40.85
2018-11-02T03:57:13.256Z,36.20
2018-11-02T03:58:17.826Z,45.92
2018-11-02T03:59:22.400Z,31.15
2018-11-02T04:00:27.575Z,41.35
2018-11-02T04:01:32.119Z,42.93
2018-11-02T04:02:36.709Z,40.48
2018-11-02T04:03:41.485Z,45.38
2018-11-02T04:04:46.081Z,43.15
2018-11-02T04:05:50.597Z,36.05
2018-11-02T04:06:55.149Z,40.30
2018-11-02T04:07:59.699Z,44.05
2018-11-02T04:09:04.658Z,37.73
2018-11-02T04:10:10.420Z,46.90
2018-11-02T04:11:15.080Z,34.92
2018-11-02T04:12:19.591Z,37.90
2018-11-02T04:13:24.140Z,36.10
2018-11-02T04:14:28.653Z,33.05
2018-11-02T04:15:33.232Z,39.40
2018-11-02T04:16:37.789Z,37.55
2018-11-02T04:17:42.347Z,32.48
2018-11-02T04:18:46.869Z,39.80
2018-11-02T04:19:51.351Z,46.83
2018-11-02T04:20:55.869Z,44.63
2018-11-02T04:22:00.413Z,37.10
2018-11-02T04:23:04.965Z,42.08
2018-11-02T04:24:09.486Z,39.73
2018-11-02T04:25:13.961Z,46.00
2018-11-02T04:26:18.530Z,39.35
2018-11-02T04:27:23.081Z,38.85
2018-11-02T04:28:27.664Z,42.75
2018-11-02T04:29:32.208Z,46.85
2018-11-02T04:30:36.736Z,38.53
2018-11-02T04:31:41.702Z,44.73
2018-11-02T04:32:46.302Z,38.23
2018-11-02T04:33:50.790Z,41.23
2018-11-02T04:34:55.425Z,42.45
2018-11-02T04:35:59.970Z,33.15
2018-11-02T04:37:04.569Z,38.48
2018-11-02T04:38:09.130Z,49.08
2018-11-02T04:39:14.706Z,44.00
2018-11-02T04:40:19.218Z,37.75
2018-11-02T04:41:23.772Z,34.38
2018-11-02T04:42:28.303Z,31.77
2018-11-02T04:43:32.833Z,33.42
2018-11-02T04:44:37.377Z,41.48
2018-11-02T04:45:41.959Z,37.48
2018-11-02T04:46:46.519Z,37.90
2018-11-02T04:47:50.969Z,37.33
2018-11-02T04:48:55.505Z,41.83
2018-11-02T04:49:59.993Z,40.92
2018-11-02T04:51:04.597Z,35.95
2018-11-02T04:52:08.982Z,45.40
2018-11-02T04:53:13.446Z,42.15
2018-11-02T04:54:17.990Z,32.20
2018-11-02T04:55:22.461Z,36.73
2018-11-02T04:56:26.946Z,42.53
2018-11-02T04:57:31.455Z,42.58
2018-11-02T04:58:35.919Z,36.20
2018-11-02T04:59:40.471Z,40.90
2018-11-02T05:00:45.018Z,41.45
2018-11-02T05:01:49.546Z,35.68
2018-11-02T05:02:54.165Z,34.00
2018-11-02T05:03:58.702Z,32.10
2018-11-02T05:05:03.233Z,36.95
2018-11-02T05:06:07.796Z,38.65
2018-11-02T05:07:12.384Z,36.38
2018-11-02T05:08:16.890Z,40.60
2018-11-02T05:09:21.492Z,34.08
2018-11-02T05:10:25.940Z,36.38
2018-11-02T05:11:30.618Z,44.65
2018-11-02T05:12:35.097Z,44.70
2018-11-02T05:13:39.689Z,42.23
2018-11-02T05:14:44.269Z,44.18
2018-11-02T05:15:48.836Z,46.02
2018-11-02T05:16:53.375Z,36.75
2018-11-02T05:17:57.935Z,44.75
2018-11-02T05:19:02.468Z,41.55
2018-11-02T05:20:08.424Z,40.12
2018-11-02T05:21:13.033Z,39.75
2018-11-02T05:22:17.494Z,37.08
2018-11-02T05:23:22.094Z,42.90
2018-11-02T05:24:26.652Z,43.58
2018-11-02T05:25:31.202Z,39.90
2018-11-02T05:26:35.752Z,37.83
2018-11-02T05:27:40.361Z,36.63
2018-11-02T05:28:44.886Z,35.48
2018-11-02T05:29:49.448Z,38.65
2018-11-02T05:30:54.089Z,38.20
2018-11-02T05:31:58.615Z,45.17
2018-11-02T05:33:03.139Z,42.60
2018-11-02T05:34:08.058Z,43.30
2018-11-02T05:35:12.645Z,46.25
2018-11-02T05:36:17.223Z,39.23
2018-11-02T05:37:21.837Z,35.45
2018-11-02T05:38:26.355Z,40.55
2018-11-02T05:39:30.975Z,37.35
2018-11-02T05:40:35.904Z,42.48
2018-11-02T05:41:40.377Z,39.88
2018-11-02T05:42:44.927Z,41.58
2018-11-02T05:43:49.391Z,43.73
2018-11-02T05:44:53.833Z,48.80
2018-11-02T05:45:58.364Z,48.08
2018-11-02T05:47:02.891Z,47.03
2018-11-02T05:48:07.477Z,38.00
2018-11-02T05:49:11.996Z,39.00
2018-11-02T05:50:16.522Z,41.18
2018-11-02T05:51:21.101Z,48.50
2018-11-02T05:52:25.662Z,41.98
2018-11-02T05:53:30.211Z,44.93
2018-11-02T05:54:34.741Z,43.00
2018-11-02T05:55:39.289Z,51.37
2018-11-02T05:56:43.830Z,46.33
2018-11-02T05:57:48.373Z,43.58
2018-11-02T05:58:52.919Z,43.95
2018-11-02T05:59:57.460Z,39.40
2018-11-02T06:01:01.987Z,55.03
2018-11-02T06:02:06.562Z,44.25
2018-11-02T06:03:11.355Z,45.73
2018-11-02T06:04:15.966Z,40.95
2018-11-02T06:05:20.515Z,45.52
2018-11-02T06:06:25.044Z,47.85
2018-11-02T06:07:29.613Z,48.92
2018-11-02T06:08:34.086Z,48.05
2018-11-02T06:09:38.676Z,54.83
2018-11-02T06:10:44.141Z,64.90
2018-11-02T06:11:48.659Z,49.67
2018-11-02T06:12:53.210Z,54.83
2018-11-02T06:13:57.728Z,48.33
2018-11-02T06:15:02.301Z,44.70
2018-11-02T06:16:06.841Z,54.85
2018-11-02T06:17:11.426Z,50.17
2018-11-02T06:18:15.960Z,54.58
2018-11-02T06:19:20.546Z,50.70
2018-11-02T06:20:25.061Z,53.58
2018-11-02T06:21:29.661Z,44.83
2018-11-02T06:22:34.189Z,43.02
2018-11-02T06:23:38.702Z,45.78
2018-11-02T06:24:43.258Z,51.10
2018-11-02T06:25:47.841Z,54.93
2018-11-02T06:26:52.395Z,46.28
2018-11-02T06:27:56.916Z,48.70
2018-11-02T06:29:01.586Z,49.13
2018-11-02T06:30:07.394Z,46.73
2018-11-02T06:31:11.961Z,48.28
2018-11-02T06:32:16.526Z,46.48
2018-11-02T06:33:21.068Z,49.60
2018-11-02T06:34:25.592Z,52.45
2018-11-02T06:35:30.449Z,42.78
2018-11-02T06:36:35.076Z,48.68
2018-11-02T06:37:39.735Z,48.23
2018-11-02T06:38:44.354Z,50.25
2018-11-02T06:39:48.862Z,43.92
2018-11-02T06:40:53.321Z,49.67
2018-11-02T06:41:57.823Z,49.70
2018-11-02T06:43:02.354Z,46.55
2018-11-02T06:44:06.914Z,50.75
2018-11-02T06:45:12.005Z,45.55
2018-11-02T06:46:16.608Z,40.92
2018-11-02T06:47:22.052Z,45.12
2018-11-02T06:48:27.004Z,45.08
2018-11-02T06:49:31.602Z,41.05
2018-11-02T06:50:36.174Z,41.70
2018-11-02T06:51:40.724Z,50.85
2018-11-02T06:52:45.256Z,47.27
2018-11-02T06:53:49.837Z,49.58
2018-11-02T06:54:54.424Z,50.90
2018-11-02T06:55:58.939Z,48.92
2018-11-02T06:57:03.545Z,47.73
2018-11-02T06:58:08.010Z,50.92
2018-11-02T06:59:12.567Z,45.10
2018-11-02T07:00:17.208Z,52.27
2018-11-02T07:01:21.717Z,48.45
2018-11-02T07:02:26.249Z,48.15
2018-11-02T07:03:30.798Z,51.02
2018-11-02T07:04:35.347Z,43.10
2018-11-02T07:05:39.965Z,47.70
2018-11-02T07:06:44.727Z,49.40
2018-11-02T07:07:49.593Z,50.12
2018-11-02T07:08:54.509Z,52.45
2018-11-02T07:09:59.354Z,59.35
2018-11-02T07:11:04.213Z,46.85
2018-11-02T07:12:08.876Z,56.13
2018-11-02T07:13:13.652Z,48.10
2018-11-02T07:14:18.294Z,44.25
2018-11-02T07:15:27.794Z,51.25
2018-11-02T07:16:32.441Z,46.73
2018-11-02T07:17:38.056Z,49.15
2018-11-02T07:18:42.924Z,44.48
2018-11-02T07:19:47.537Z,45.08
2018-11-02T07:21:10.026Z,46.95
2018-11-02T07:22:14.573Z,47.00
2018-11-02T07:23:19.439Z,45.50
2018-11-02T07:24:24.060Z,49.65
2018-11-02T07:25:28.746Z,44.63
2018-11-02T07:27:36.075Z,41.80
2018-11-02T07:28:40.973Z,46.68
2018-11-02T07:29:45.600Z,49.55
2018-11-02T07:30:50.385Z,53.23
2018-11-02T07:31:55.239Z,51.13
2018-11-02T07:33:00.155Z,56.73
2018-11-02T07:34:05.438Z,63.52
2018-11-02T07:35:10.927Z,59.27
2018-11-02T07:36:15.776Z,51.68
2018-11-02T07:37:20.609Z,57.23
2018-11-02T07:38:25.201Z,50.75
2018-11-02T07:39:32.096Z,46.98
2018-11-02T07:40:36.695Z,50.48
2018-11-02T07:41:41.448Z,49.80
2018-11-02T07:42:46.097Z,45.05
2018-11-02T07:43:50.573Z,54.27
2018-11-02T07:44:55.113Z,45.88
2018-11-02T07:45:59.698Z,52.00
2018-11-02T07:47:04.406Z,54.50
2018-11-02T07:48:09.223Z,49.80
2018-11-02T07:49:13.980Z,45.35
2018-11-02T07:50:18.780Z,62.43
2018-11-02T07:51:23.571Z,53.23
2018-11-02T07:52:28.404Z,48.52
2018-11-02T07:53:33.208Z,54.20
2018-11-02T07:54:38.002Z,39.40
2018-11-02T07:55:42.934Z,44.05
2018-11-02T07:56:47.758Z,41.55
2018-11-02T07:57:52.483Z,35.48
2018-11-02T07:58:57.241Z,47.65
2018-11-02T08:00:02.024Z,36.35
2018-11-02T08:01:06.869Z,35.00
2018-11-02T08:02:11.641Z,31.12
2018-11-02T08:03:16.397Z,33.35
2018-11-02T08:04:21.194Z,41.13
2018-11-02T08:05:25.945Z,46.28
2018-11-02T08:06:30.779Z,46.15
2018-11-02T08:07:35.663Z,36.98
2018-11-02T08:08:41.299Z,42.85
2018-11-02T08:09:46.351Z,35.98
2018-11-02T08:10:51.437Z,31.90
2018-11-02T08:11:56.744Z,43.25
2018-11-02T08:13:02.295Z,30.15
2018-11-02T08:14:08.679Z,43.48
2018-11-02T08:15:13.810Z,40.98
2018-11-02T08:16:19.205Z,32.25
2018-11-02T08:17:23.921Z,44.98
2018-11-02T08:18:28.837Z,34.03
2018-11-02T08:19:33.561Z,29.65
2018-11-02T08:20:38.374Z,33.75
2018-11-02T08:21:43.155Z,30.80
2018-11-02T08:22:47.958Z,33.23
2018-11-02T08:23:52.764Z,31.62
2018-11-02T08:24:57.553Z,31.20
2018-11-02T08:26:02.373Z,29.92
2018-11-02T08:27:07.608Z,31.77
2018-11-02T08:28:12.398Z,33.58
2018-11-02T08:29:17.187Z,28.87
2018-11-02T08:30:21.970Z,30.72
2018-11-02T08:31:26.785Z,28.23
2018-11-02T08:32:31.596Z,29.77
2018-11-02T08:33:36.321Z,35.65
2018-11-02T08:34:41.156Z,29.65
2018-11-02T08:35:45.953Z,34.40
2018-11-02T08:36:50.784Z,34.13
2018-11-02T08:37:55.577Z,31.27
2018-11-02T08:39:00.437Z,36.42
2018-11-02T08:40:08.938Z,34.58
2018-11-02T08:41:13.745Z,37.50
2018-11-02T08:42:18.553Z,36.77
2018-11-02T08:43:23.360Z,36.83
2018-11-02T08:44:28.216Z,28.27
2018-11-02T08:45:33.003Z,29.63
2018-11-02T08:46:37.875Z,29.02
2018-11-02T08:47:42.610Z,29.18
2018-11-02T08:48:47.390Z,32.58
2018-11-02T08:49:52.203Z,33.35
2018-11-02T08:50:57.014Z,46.02
2018-11-02T08:52:01.819Z,37.33
2018-11-02T08:53:06.652Z,31.27
2018-11-02T08:54:11.424Z,35.63
2018-11-02T08:55:16.181Z,30.32
2018-11-02T08:56:21.029Z,29.23
2018-11-02T08:57:25.839Z,27.20
2018-11-02T08:58:30.743Z,32.55
2018-11-02T08:59:35.626Z,31.12
2018-11-02T09:00:40.230Z,29.72
2018-11-02T09:01:45.081Z,39.20
2018-11-02T09:02:49.868Z,37.95
2018-11-02T09:03:54.568Z,32.50
2018-11-02T09:04:59.404Z,37.08
2018-11-02T09:06:04.177Z,32.73
2018-11-02T09:07:09.017Z,30.20
2018-11-02T09:08:13.861Z,40.45
2018-11-02T09:09:18.574Z,39.05
2018-11-02T09:10:23.257Z,42.40
2018-11-02T09:11:27.886Z,40.43
2018-11-02T09:12:32.431Z,31.70
2018-11-02T09:13:36.973Z,27.50
2018-11-02T09:14:41.528Z,33.00
2018-11-02T09:15:46.074Z,29.80
2018-11-02T09:16:50.587Z,28.75
2018-11-02T09:17:55.106Z,23.67
2018-11-02T09:18:59.704Z,23.25
2018-11-02T09:20:04.729Z,31.82
2018-11-02T09:21:09.216Z,34.20
2018-11-02T09:22:13.766Z,29.02
2018-11-02T09:23:18.351Z,32.60
2018-11-02T09:24:22.946Z,30.62
2018-11-02T09:25:27.615Z,31.48
2018-11-02T09:26:32.100Z,24.70
2018-11-02T09:27:36.655Z,36.45
2018-11-02T09:28:41.164Z,35.03
2018-11-02T09:29:45.713Z,29.30
2018-11-02T09:30:50.237Z,24.02
2018-11-02T09:31:54.741Z,26.05
2018-11-02T09:32:59.180Z,25.77
2018-11-02T09:34:03.613Z,29.18
2018-11-02T09:35:08.225Z,26.62
2018-11-02T09:36:12.740Z,28.98
2018-11-02T09:37:17.281Z,36.03
2018-11-02T09:38:21.793Z,26.77
2018-11-02T09:39:26.256Z,26.62
2018-11-02T09:40:30.819Z,26.82
2018-11-02T09:41:35.286Z,26.12
2018-11-02T09:42:39.812Z,27.10
2018-11-02T09:43:44.372Z,26.90
2018-11-02T09:44:48.907Z,24.43
2018-11-02T09:45:53.391Z,21.35
2018-11-02T09:46:57.943Z,25.80
2018-11-02T09:48:02.481Z,30.80
2018-11-02T09:49:07.057Z,29.75
2018-11-02T09:50:12.219Z,25.70
2018-11-02T09:51:16.781Z,21.07
2018-11-02T09:52:21.352Z,29.20
2018-11-02T09:53:25.920Z,28.17
2018-11-02T09:54:30.460Z,23.62
2018-11-02T09:55:34.943Z,30.82
2018-11-02T09:56:39.502Z,27.95
2018-11-02T09:57:44.891Z,20.15
2018-11-02T09:58:49.410Z,34.90
2018-11-02T09:59:54.039Z,31.37
2018-11-02T10:00:58.610Z,31.25
2018-11-02T10:02:03.246Z,29.40
2018-11-02T10:03:07.753Z,24.40
2018-11-02T10:04:12.413Z,24.47
2018-11-02T10:05:17.022Z,28.95
2018-11-02T10:06:21.589Z,31.23
2018-11-02T10:07:26.153Z,24.77
2018-11-02T10:08:30.805Z,30.08
2018-11-02T10:09:35.328Z,24.00
2018-11-02T10:10:39.816Z,24.52
2018-11-02T10:11:44.392Z,25.80
2018-11-02T10:12:48.940Z,30.40
2018-11-02T10:13:53.518Z,32.90
2018-11-02T10:14:58.073Z,31.52
2018-11-02T10:16:02.650Z,20.85
2018-11-02T10:17:07.298Z,29.05
2018-11-02T10:18:11.874Z,27.87
2018-11-02T10:19:16.436Z,38.78
2018-11-02T10:20:20.989Z,27.87
2018-11-02T10:21:25.533Z,27.52
2018-11-02T10:22:30.109Z,25.40
2018-11-02T10:23:34.671Z,23.50
2018-11-02T10:24:39.165Z,25.10
2018-11-02T10:25:43.731Z,24.65
2018-11-02T10:26:48.228Z,22.27
2018-11-02T10:27:52.934Z,24.23
2018-11-02T10:28:57.589Z,24.65
2018-11-02T10:30:02.455Z,25.32
2018-11-02T10:31:07.308Z,24.50
2018-11-02T10:32:11.851Z,21.80
2018-11-02T10:33:16.384Z,19.52
2018-11-02T10:34:21.001Z,22.82
2018-11-02T10:35:25.686Z,25.97
2018-11-02T10:36:30.699Z,22.35
2018-11-02T10:37:35.317Z,23.25
2018-11-02T10:38:39.881Z,22.22
2018-11-02T10:39:44.952Z,24.75
2018-11-02T10:40:52.367Z,18.77
2018-11-02T10:41:59.594Z,20.32
2018-11-02T10:43:10.728Z,16.35
2018-11-02T10:44:17.526Z,25.77
2018-11-02T10:45:23.447Z,23.18
2018-11-02T10:46:28.156Z,23.87
2018-11-02T10:47:32.852Z,22.30
2018-11-02T10:48:37.411Z,28.77
2018-11-02T10:49:41.970Z,24.65
2018-11-02T10:50:46.529Z,17.85
2018-11-02T10:51:51.144Z,26.87
2018-11-02T10:52:55.719Z,27.45
2018-11-02T10:54:00.282Z,25.90
2018-11-02T10:55:04.973Z,22.98
2018-11-02T10:56:09.556Z,33.50
2018-11-02T10:57:14.045Z,20.52
2018-11-02T10:58:18.609Z,19.10
2018-11-02T10:59:23.218Z,17.15
2018-11-02T11:00:32.866Z,22.77
2018-11-02T11:01:42.589Z,25.50
2018-11-02T11:02:47.185Z,25.20
2018-11-02T11:03:51.789Z,28.23
2018-11-02T11:04:56.800Z,24.43
2018-11-02T11:06:01.349Z,19.70
2018-11-02T11:07:42.269Z,21.60
2018-11-02T11:08:46.796Z,21.85
2018-11-02T11:09:51.544Z,26.97
2018-11-02T11:10:56.141Z,25.88
2018-11-02T11:12:00.869Z,21.80
2018-11-02T11:13:05.751Z,23.45
2018-11-02T11:14:10.394Z,25.15
2018-11-02T11:15:14.925Z,19.52
2018-11-02T11:16:19.484Z,18.50
2018-11-02T11:17:24.132Z,22.15
2018-11-02T11:18:28.723Z,28.60
2018-11-02T11:19:33.251Z,25.95
2018-11-02T11:20:37.834Z,33.30
2018-11-02T11:21:43.038Z,25.57
2018-11-02T11:22:47.583Z,18.48
2018-11-02T11:23:52.196Z,24.45
2018-11-02T11:24:56.988Z,22.13
2018-11-02T11:26:01.482Z,24.07
2018-11-02T11:27:06.240Z,22.22
2018-11-02T11:28:10.903Z,19.45
2018-11-02T11:29:15.515Z,19.35
2018-11-02T11:30:20.797Z,19.45
2018-11-02T11:31:25.335Z,34.00
2018-11-02T11:32:29.835Z,30.48
2018-11-02T11:33:34.615Z,25.35
2018-11-02T11:34:39.223Z,29.52
2018-11-02T11:35:43.704Z,28.92
2018-11-02T11:36:48.218Z,19.77
2018-11-02T11:37:52.734Z,17.48
2018-11-02T11:38:57.297Z,22.32
2018-11-02T11:40:01.782Z,22.60
2018-11-02T11:41:06.380Z,19.82
2018-11-02T11:42:10.943Z,30.92
2018-11-02T11:43:15.516Z,25.88
2018-11-02T11:44:20.121Z,24.15
2018-11-02T11:45:24.651Z,29.57
2018-11-02T11:46:29.223Z,22.55
2018-11-02T11:47:33.843Z,20.85
2018-11-02T11:48:38.494Z,18.05
2018-11-02T11:49:43.079Z,19.52
2018-11-02T11:50:47.641Z,22.85
2018-11-02T11:51:52.244Z,25.90
2018-11-02T11:52:56.804Z,23.40
2018-11-02T11:54:01.523Z,20.57
2018-11-02T11:55:07.685Z,24.40
2018-11-02T11:56:37.285Z,26.17
2018-11-02T11:57:42.774Z,20.90
2018-11-02T11:58:47.388Z,30.55
2018-11-02T11:59:52.084Z,27.82
2018-11-02T12:00:56.624Z,40.45
2018-11-02T12:02:01.431Z,39.45
2018-11-02T12:03:05.927Z,30.55
2018-11-02T12:04:10.491Z,28.30
2018-11-02T12:05:16.322Z,28.57
2018-11-02T12:06:20.828Z,28.83
2018-11-02T12:07:25.327Z,20.15
2018-11-02T12:08:29.865Z,27.70
2018-11-02T12:09:34.466Z,34.67
2018-11-02T12:10:39.066Z,33.18
2018-11-02T12:11:43.653Z,24.67
2018-11-02T12:12:48.335Z,28.83
2018-11-02T12:13:52.803Z,24.37
2018-11-02T12:14:57.482Z,28.05
2018-11-02T12:16:02.015Z,23.90
2018-11-02T12:17:06.694Z,20.52
2018-11-02T12:18:11.286Z,20.37
2018-11-02T12:19:15.923Z,29.80
2018-11-02T12:20:22.944Z,30.05
2018-11-02T12:21:27.543Z,29.37
2018-11-02T12:22:32.109Z,18.90
2018-11-02T12:23:36.686Z,28.10
2018-11-02T12:24:41.188Z,23.75
2018-11-02T12:25:45.740Z,25.88
2018-11-02T12:26:50.308Z,23.22
2018-11-02T12:27:54.821Z,29.92
2018-11-02T12:28:59.386Z,24.47
2018-11-02T12:30:04.063Z,20.27
2018-11-02T12:31:08.592Z,21.33
2018-11-02T12:32:13.073Z,31.80
2018-11-02T12:33:17.569Z,21.90
2018-11-02T12:34:22.100Z,28.75
2018-11-02T12:35:26.891Z,27.22
2018-11-02T12:36:31.571Z,24.32
2018-11-02T12:37:36.326Z,24.30
2018-11-02T12:38:40.854Z,27.65
2018-11-02T12:39:45.409Z,25.05
2018-11-02T12:40:49.965Z,24.77
2018-11-02T12:41:54.489Z,20.55
2018-11-02T12:42:59.070Z,23.85
2018-11-02T12:44:03.609Z,27.73
2018-11-02T12:45:09.801Z,24.82
2018-11-02T12:46:14.402Z,25.60
2018-11-02T12:47:18.961Z,21.95
2018-11-02T12:48:23.541Z,22.02
2018-11-02T12:49:28.255Z,23.40
2018-11-02T12:50:32.606Z,26.93
2018-11-02T12:51:37.137Z,32.55
2018-11-02T12:52:41.915Z,30.35
2018-11-02T12:53:46.384Z,32.33
2018-11-02T12:54:50.869Z,19.35
2018-11-02T12:55:55.328Z,19.67
2018-11-02T12:56:59.872Z,24.57
2018-11-02T12:58:04.449Z,32.40
2018-11-02T12:59:09.315Z,29.85
2018-11-02T13:00:16.501Z,26.97
2018-11-02T13:01:21.037Z,28.80
2018-11-02T13:02:25.704Z,24.30
2018-11-02T13:03:30.334Z,20.00
2018-11-02T13:04:34.850Z,21.95
2018-11-02T13:05:39.468Z,30.35
2018-11-02T13:06:43.967Z,29.60
2018-11-02T13:07:48.502Z,31.48
2018-11-02T13:08:52.964Z,23.67
2018-11-02T13:10:00.560Z,25.02
2018-11-02T13:11:06.017Z,24.20
2018-11-02T13:12:10.583Z,24.85
2018-11-02T13:13:15.142Z,33.35
2018-11-02T13:14:19.674Z,26.45
2018-11-02T13:15:24.724Z,23.47
2018-11-02T13:16:29.315Z,29.80
2018-11-02T13:17:34.007Z,25.35
2018-11-02T13:18:38.495Z,26.60
2018-11-02T13:19:43.059Z,24.98
2018-11-02T13:20:47.638Z,28.00
2018-11-02T13:21:52.299Z,22.55
2018-11-02T13:22:56.750Z,26.90
2018-11-02T13:24:01.314Z,24.15
2018-11-02T13:25:07.094Z,28.27
2018-11-02T13:26:11.753Z,21.45
2018-11-02T13:27:16.105Z,27.77
2018-11-02T13:28:21.043Z,25.23
2018-11-02T13:29:25.635Z,22.62
2018-11-02T13:30:30.345Z,17.50
2018-11-02T13:31:34.787Z,25.40
2018-11-02T13:32:39.378Z,24.70
2018-11-02T13:33:43.843Z,21.90
2018-11-02T13:34:48.311Z,24.05
2018-11-02T13:35:52.925Z,27.67
2018-11-02T13:36:57.529Z,29.30
2018-11-02T13:38:02.090Z,33.25
2018-11-02T13:39:09.410Z,31.73
2018-11-02T13:40:16.126Z,19.80
2018-11-02T13:41:20.677Z,30.50
2018-11-02T13:42:25.213Z,26.00
2018-11-02T13:43:29.821Z,28.32
2018-11-02T13:44:34.318Z,29.45
2018-11-02T13:45:38.792Z,28.57
2018-11-02T13:46:43.286Z,31.27
2018-11-02T13:47:47.844Z,31.27
2018-11-02T13:48:52.427Z,18.35
2018-11-02T13:49:56.974Z,25.23
2018-11-02T13:51:01.542Z,31.57
2018-11-02T13:52:07.111Z,24.70
2018-11-02T13:53:11.631Z,25.32
2018-11-02T13:54:16.177Z,27.25
2018-11-02T13:55:20.706Z,25.80
2018-11-02T13:56:25.693Z,31.20